• Join FlightAware (Why Join?)
  • Login
  • US Flag 
07:32AM EDT


 

Airport Tracker/Info


-or-


 

Live Flight TrackerFlight Track Log ✈ SLI536 ✈ 23-Jul-2013 ✈ MMMD / MID - MMMX / MEX

Flight Track Log - Related Links

Times and Time Zones

All times are in EDT time to prevent confusion due to time zone crossing. See the SLI536 flight status page for this flight to view local times or setup timezone preferences in your user account.

Time Position Orientation Groundspeed Altitude Reporting Facility
EDT Latitude Longitude Course Direction KTS MPH feet Rate Location/Type
09:34AM 20.8852 -90.0495 262° West  Level Estimated
09:35AM 20.8721 -90.1474 262° West  Level Estimated
09:36AM 20.8589 -90.2453 262° West  Level Estimated
09:37AM 20.8457 -90.3431 262° West  Level Estimated
09:38AM 20.8324 -90.4410 262° West  Level Estimated
09:39AM 20.8191 -90.5388 262° West  Level Estimated
09:40AM 20.8057 -90.6367 262° West  Level Estimated
09:41AM 20.7923 -90.7345 262° West  Level Estimated
09:42AM 20.7788 -90.8322 262° West  Level Estimated
09:43AM 20.7653 -90.9300 262° West  Level Estimated
09:44AM 20.7517 -91.0278 262° West  Level Estimated
09:45AM 20.7381 -91.1255 262° West  Level Estimated
09:46AM 20.7243 -91.2232 261° West  Level Estimated
09:47AM 20.7106 -91.3209 261° West  Level Estimated
09:48AM 20.6968 -91.4186 261° West  Level Estimated
09:49AM 20.6829 -91.5162 261° West  Level Estimated
09:50AM 20.6690 -91.6139 261° West  Level Estimated
09:51AM 20.6550 -91.7115 261° West  Level Estimated
09:52AM 20.6409 -91.8091 261° West  Level Estimated
09:53AM 20.6269 -91.9067 261° West  Level Estimated
09:54AM 20.6127 -92.0043 261° West  Level Estimated
09:55AM 20.5985 -92.1018 261° West  Level Estimated
09:56AM 20.5843 -92.1994 261° West  Level Estimated
09:57AM 20.5700 -92.2969 261° West  Level Estimated
09:58AM 20.5556 -92.3944 261° West  Level Estimated
09:59AM 20.5412 -92.4919 261° West  Level Estimated
10:00AM 20.5267 -92.5893 261° West  Level Estimated
10:01AM 20.5122 -92.6868 261° West  Level Estimated
10:02AM 20.4976 -92.7842 261° West  Level Estimated
10:03AM 20.4830 -92.8816 261° West  Level Estimated
10:04AM 20.4683 -92.9790 261° West  Level Estimated
10:05AM 20.4535 -93.0764 261° West  Level Estimated
10:06AM 20.4387 -93.1737 261° West  Level Estimated
10:07AM 20.4239 -93.2710 261° West  Level Estimated
10:08AM 20.4090 -93.3683 261° West  Level Estimated
10:09AM 20.3940 -93.4656 261° West  Level Estimated
10:10AM 20.3790 -93.5629 261° West  Level Estimated
10:11AM 20.3639 -93.6602 261° West  Level Estimated
10:12AM 20.3488 -93.7574 261° West  Level Estimated
10:13AM 20.3336 -93.8546 261° West  Level Estimated
10:14AM 20.3184 -93.9518 261° West  Level Estimated
10:15AM 20.3031 -94.0490 260° West  Level Estimated
10:16AM 20.2878 -94.1462 260° West  Level Estimated
10:17AM 20.2724 -94.2433 260° West  Level Estimated
10:18AM 20.2570 -94.3404 260° West  Level Estimated
10:19AM 20.2414 -94.4375 260° West  Level Estimated
10:20AM 20.2259 -94.5346 260° West  Level Estimated
10:21AM 20.2103 -94.6317 260° West  Level Estimated
10:22AM 20.1946 -94.7287 260° West  Level Estimated
10:23AM 20.1789 -94.8257 260° West  Level Estimated
10:24AM 20.1632 -94.9227 260° West  Level Estimated
10:25AM 20.1474 -95.0197 260° West  Level Estimated
10:26AM 20.1315 -95.1167 260° West  Level Estimated
10:27AM 20.1156 -95.2136 260° West  Level Estimated
10:28AM 20.0996 -95.3106 260° West  Level Estimated
10:29AM 20.0835 -95.4075 260° West  Level Estimated
10:30AM 20.0675 -95.5044 260° West  Level Estimated
10:31AM 20.0513 -95.6012 260° West  Level Estimated
10:32AM 20.0351 -95.6981 260° West  Level Estimated
10:33AM 20.0189 -95.7949 260° West  Level Estimated
10:34AM 20.0026 -95.8917 260° West  Level Estimated
10:35AM 19.9863 -95.9885 260° West  Level Estimated
10:36AM 19.9699 -96.0853 260° West  Level Estimated
10:37AM 19.9534 -96.1820 260° West  Level Estimated
10:38AM 19.9369 -96.2788 260° West  Level Estimated
10:39AM 19.9203 -96.3755 260° West  Level Estimated
10:40AM 19.9037 -96.4722 260° West  Level Estimated
10:41AM 19.8871 -96.5688 260° West  Level Estimated
10:42AM 19.8704 -96.6655 260° West  Level Estimated
10:43AM 19.8536 -96.7621 260° West  Level Estimated
10:44AM 19.8368 -96.8587 260° West  Level Estimated
10:45AM 19.8199 -96.9553 259° West  Level Estimated
10:46AM 19.8030 -97.0518 259° West  Level Estimated
10:47AM 19.7860 -97.1484 259° West  Level Estimated
10:48AM 19.7690 -97.2449 259° West  Level Estimated
10:49AM 19.7519 -97.3414 259° West  Level Estimated
10:50AM 19.7348 -97.4379 259° West  Level Estimated
10:51AM 19.7176 -97.5343 259° West  Level Estimated
10:52AM 19.7004 -97.6308 259° West  Level Estimated
10:53AM 19.6831 -97.7272 259° West  Level Estimated
10:54AM 19.6658 -97.8236 259° West  Level Estimated
10:55AM 19.6484 -97.9200 259° West  Level Estimated
10:56AM 19.6310 -98.0163 259° West  Level Estimated
10:57AM 19.6135 -98.1127 259° West  Level Estimated
10:58AM 19.5959 -98.2090 259° West  Level Estimated
10:59AM 19.5783 -98.3053 259° West  Level Estimated
11:00AM 19.5607 -98.4015 259° West  Level Estimated
11:01AM 19.5430 -98.4978 259° West  Level Estimated
11:02AM 19.5253 -98.5940 259° West  Level Estimated
11:03AM 19.5075 -98.6902 259° West  Level Estimated
11:04AM 19.4896 -98.7864 259° West  Level Estimated
11:05AM 19.4717 -98.8826 259° West  Level Estimated
11:06AM 19.4538 -98.9787 259° West  Level Estimated
11:07AM 19.4363 -99.0721 259° West  Level Estimated
11:08AM 19.4363 -99.0721 43° Northeast  Level Estimated
11:09AM 19.4363 -99.0721 43° Northeast  Level Estimated
11:10AM 19.4363 -99.0721 43° Northeast  Level Estimated
11:11AM 19.4363 -99.0721 43° Northeast  Level Estimated
11:12AM 19.4363 -99.0721 43° Northeast  Level Estimated
11:13AM 19.4363 -99.0721 43° Northeast  Level Estimated
11:14AM 19.4363 -99.0721 43° Northeast  Level Estimated
11:15AM 19.4363 -99.0721 43° Northeast  Level Estimated
11:16AM 19.4363 -99.0721 43° Northeast  Level Estimated
11:17AM 19.4363 -99.0721 43° Northeast  Level Estimated
11:18AM 19.4363 -99.0721 43° Northeast  Level Estimated